sensor_id;sensor_type;location;lat;lon;timestamp;temperature;humidity
39849;DHT22;25518;47.878;15.914;2023-02-20T00:01:07;6.20;99.90
39849;DHT22;25518;47.878;15.914;2023-02-20T00:03:57;6.20;99.90
39849;DHT22;25518;47.878;15.914;2023-02-20T00:06:46;6.20;99.90
39849;DHT22;25518;47.878;15.914;2023-02-20T00:09:36;6.30;99.90
39849;DHT22;25518;47.878;15.914;2023-02-20T00:12:26;6.20;99.90
39849;DHT22;25518;47.878;15.914;2023-02-20T00:15:18;6.30;99.90
39849;DHT22;25518;47.878;15.914;2023-02-20T00:18:08;6.40;99.90
39849;DHT22;25518;47.878;15.914;2023-02-20T00:20:57;6.30;99.90
39849;DHT22;25518;47.878;15.914;2023-02-20T00:23:47;6.40;99.90
39849;DHT22;25518;47.878;15.914;2023-02-20T00:26:36;6.40;99.90
39849;DHT22;25518;47.878;15.914;2023-02-20T00:29:26;6.40;99.90
39849;DHT22;25518;47.878;15.914;2023-02-20T00:32:16;6.50;99.90
39849;DHT22;25518;47.878;15.914;2023-02-20T00:35:05;6.60;99.90
39849;DHT22;25518;47.878;15.914;2023-02-20T00:37:55;6.60;99.90
39849;DHT22;25518;47.878;15.914;2023-02-20T00:40:45;6.50;99.90
39849;DHT22;25518;47.878;15.914;2023-02-20T00:43:34;6.50;99.90
39849;DHT22;25518;47.878;15.914;2023-02-20T00:46:24;6.60;99.90
39849;DHT22;25518;47.878;15.914;2023-02-20T00:49:14;6.60;99.90
39849;DHT22;25518;47.878;15.914;2023-02-20T00:52:04;6.40;99.90
39849;DHT22;25518;47.878;15.914;2023-02-20T00:54:53;6.30;99.90
39849;DHT22;25518;47.878;15.914;2023-02-20T00:57:43;6.30;99.90
39849;DHT22;25518;47.878;15.914;2023-02-20T01:00:33;6.50;99.90
39849;DHT22;25518;47.878;15.914;2023-02-20T01:03:23;6.30;99.90
39849;DHT22;25518;47.878;15.914;2023-02-20T01:06:12;6.40;99.90
39849;DHT22;25518;47.878;15.914;2023-02-20T01:09:02;6.50;99.90
39849;DHT22;25518;47.878;15.914;2023-02-20T01:11:52;6.70;99.90
39849;DHT22;25518;47.878;15.914;2023-02-20T01:14:42;6.80;99.90
39849;DHT22;25518;47.878;15.914;2023-02-20T01:17:32;6.80;99.90
39849;DHT22;25518;47.878;15.914;2023-02-20T01:20:21;6.80;99.90
39849;DHT22;25518;47.878;15.914;2023-02-20T01:23:11;6.70;99.90
39849;DHT22;25518;47.878;15.914;2023-02-20T01:26:01;6.50;99.90
39849;DHT22;25518;47.878;15.914;2023-02-20T01:28:50;6.60;99.90
39849;DHT22;25518;47.878;15.914;2023-02-20T01:31:47;6.50;99.90
39849;DHT22;25518;47.878;15.914;2023-02-20T01:34:38;6.40;99.90
39849;DHT22;25518;47.878;15.914;2023-02-20T01:37:27;6.30;99.90
39849;DHT22;25518;47.878;15.914;2023-02-20T01:40:20;6.40;99.90
39849;DHT22;25518;47.878;15.914;2023-02-20T01:43:10;6.50;99.90
39849;DHT22;25518;47.878;15.914;2023-02-20T01:49:23;6.40;99.90
39849;DHT22;25518;47.878;15.914;2023-02-20T01:55:12;6.30;99.90
39849;DHT22;25518;47.878;15.914;2023-02-20T01:58:09;6.30;99.90
39849;DHT22;25518;47.878;15.914;2023-02-20T02:01:02;6.40;99.90
39849;DHT22;25518;47.878;15.914;2023-02-20T02:03:57;6.30;99.90
39849;DHT22;25518;47.878;15.914;2023-02-20T02:06:51;6.40;99.90
39849;DHT22;25518;47.878;15.914;2023-02-20T02:10:02;6.40;99.90
39849;DHT22;25518;47.878;15.914;2023-02-20T02:12:53;6.30;99.90
39849;DHT22;25518;47.878;15.914;2023-02-20T02:15:43;6.20;99.90
39849;DHT22;25518;47.878;15.914;2023-02-20T02:18:44;6.20;99.90
39849;DHT22;25518;47.878;15.914;2023-02-20T02:37:20;5.90;99.90
39849;DHT22;25518;47.878;15.914;2023-02-20T02:48:46;6.40;99.90
39849;DHT22;25518;47.878;15.914;2023-02-20T02:51:39;6.40;99.90
39849;DHT22;25518;47.878;15.914;2023-02-20T02:54:34;6.50;99.90
39849;DHT22;25518;47.878;15.914;2023-02-20T02:57:26;6.50;99.90
39849;DHT22;25518;47.878;15.914;2023-02-20T03:00:28;6.50;99.90
39849;DHT22;25518;47.878;15.914;2023-02-20T03:20:16;6.70;99.90
39849;DHT22;25518;47.878;15.914;2023-02-20T03:23:07;6.60;99.90
39849;DHT22;25518;47.878;15.914;2023-02-20T03:26:03;6.60;99.90
39849;DHT22;25518;47.878;15.914;2023-02-20T03:28:58;6.60;99.90
39849;DHT22;25518;47.878;15.914;2023-02-20T03:31:52;6.40;99.90
39849;DHT22;25518;47.878;15.914;2023-02-20T03:35:05;6.40;99.90
39849;DHT22;25518;47.878;15.914;2023-02-20T03:38:16;6.50;99.90
39849;DHT22;25518;47.878;15.914;2023-02-20T03:41:28;6.40;99.90
39849;DHT22;25518;47.878;15.914;2023-02-20T03:44:38;6.40;99.90
39849;DHT22;25518;47.878;15.914;2023-02-20T03:47:28;6.60;99.90
39849;DHT22;25518;47.878;15.914;2023-02-20T03:50:19;6.50;99.90
39849;DHT22;25518;47.878;15.914;2023-02-20T03:53:09;6.40;99.90
39849;DHT22;25518;47.878;15.914;2023-02-20T03:56:03;6.30;99.90
39849;DHT22;25518;47.878;15.914;2023-02-20T03:59:00;6.40;99.90
39849;DHT22;25518;47.878;15.914;2023-02-20T04:01:56;6.60;99.90
39849;DHT22;25518;47.878;15.914;2023-02-20T04:04:49;6.70;99.90
39849;DHT22;25518;47.878;15.914;2023-02-20T04:07:49;6.60;99.90
39849;DHT22;25518;47.878;15.914;2023-02-20T04:10:45;6.50;99.90
39849;DHT22;25518;47.878;15.914;2023-02-20T04:13:38;6.70;99.90
39849;DHT22;25518;47.878;15.914;2023-02-20T04:16:34;6.80;99.90
39849;DHT22;25518;47.878;15.914;2023-02-20T04:19:24;6.80;99.90
39849;DHT22;25518;47.878;15.914;2023-02-20T04:22:18;6.70;99.90
39849;DHT22;25518;47.878;15.914;2023-02-20T04:28:12;7.10;99.90
39849;DHT22;25518;47.878;15.914;2023-02-20T04:31:02;7.00;99.90
39849;DHT22;25518;47.878;15.914;2023-02-20T04:33:52;7.00;99.90
39849;DHT22;25518;47.878;15.914;2023-02-20T04:36:42;6.90;99.90
39849;DHT22;25518;47.878;15.914;2023-02-20T04:39:32;6.90;99.90
39849;DHT22;25518;47.878;15.914;2023-02-20T04:42:21;6.80;99.90
39849;DHT22;25518;47.878;15.914;2023-02-20T04:45:10;6.80;99.90
39849;DHT22;25518;47.878;15.914;2023-02-20T04:48:00;6.90;99.90
39849;DHT22;25518;47.878;15.914;2023-02-20T04:50:50;7.00;99.90
39849;DHT22;25518;47.878;15.914;2023-02-20T04:53:39;7.00;99.90
39849;DHT22;25518;47.878;15.914;2023-02-20T04:56:29;7.00;99.90
39849;DHT22;25518;47.878;15.914;2023-02-20T04:59:19;7.00;99.90
39849;DHT22;25518;47.878;15.914;2023-02-20T05:02:08;7.20;99.90
39849;DHT22;25518;47.878;15.914;2023-02-20T05:04:58;7.10;99.90
39849;DHT22;25518;47.878;15.914;2023-02-20T05:07:48;7.00;99.90
39849;DHT22;25518;47.878;15.914;2023-02-20T05:10:37;7.10;99.90
39849;DHT22;25518;47.878;15.914;2023-02-20T05:13:27;7.10;99.90
39849;DHT22;25518;47.878;15.914;2023-02-20T05:16:17;7.10;99.90
39849;DHT22;25518;47.878;15.914;2023-02-20T05:19:07;6.90;99.90
39849;DHT22;25518;47.878;15.914;2023-02-20T05:21:57;7.00;99.90
39849;DHT22;25518;47.878;15.914;2023-02-20T05:25:07;7.10;99.90
39849;DHT22;25518;47.878;15.914;2023-02-20T05:27:57;7.00;99.90
39849;DHT22;25518;47.878;15.914;2023-02-20T05:30:47;7.00;99.90
39849;DHT22;25518;47.878;15.914;2023-02-20T05:33:36;7.10;99.90
39849;DHT22;25518;47.878;15.914;2023-02-20T05:36:26;7.00;99.90
39849;DHT22;25518;47.878;15.914;2023-02-20T05:39:16;6.90;99.90
39849;DHT22;25518;47.878;15.914;2023-02-20T05:42:06;6.90;99.90
39849;DHT22;25518;47.878;15.914;2023-02-20T05:44:57;7.00;99.90
39849;DHT22;25518;47.878;15.914;2023-02-20T05:47:47;6.90;99.90
39849;DHT22;25518;47.878;15.914;2023-02-20T05:50:36;7.00;99.90
39849;DHT22;25518;47.878;15.914;2023-02-20T05:53:27;7.10;99.90
39849;DHT22;25518;47.878;15.914;2023-02-20T05:56:18;7.10;99.90
39849;DHT22;25518;47.878;15.914;2023-02-20T05:59:08;7.10;99.90
39849;DHT22;25518;47.878;15.914;2023-02-20T06:01:59;7.10;99.90
39849;DHT22;25518;47.878;15.914;2023-02-20T06:04:48;7.00;99.90
39849;DHT22;25518;47.878;15.914;2023-02-20T06:07:38;7.00;99.90
39849;DHT22;25518;47.878;15.914;2023-02-20T06:10:27;7.00;99.90
39849;DHT22;25518;47.878;15.914;2023-02-20T06:13:17;7.00;99.90
39849;DHT22;25518;47.878;15.914;2023-02-20T06:16:08;7.00;99.90
39849;DHT22;25518;47.878;15.914;2023-02-20T06:18:58;7.00;99.90
39849;DHT22;25518;47.878;15.914;2023-02-20T06:21:49;6.90;99.90
39849;DHT22;25518;47.878;15.914;2023-02-20T06:24:39;7.00;99.90
39849;DHT22;25518;47.878;15.914;2023-02-20T06:27:32;7.10;99.90
39849;DHT22;25518;47.878;15.914;2023-02-20T06:30:22;7.10;99.90
39849;DHT22;25518;47.878;15.914;2023-02-20T06:33:11;7.10;99.90
39849;DHT22;25518;47.878;15.914;2023-02-20T06:36:02;7.20;99.90
39849;DHT22;25518;47.878;15.914;2023-02-20T06:38:52;7.10;99.90
39849;DHT22;25518;47.878;15.914;2023-02-20T06:41:42;7.20;99.90
39849;DHT22;25518;47.878;15.914;2023-02-20T06:44:32;7.20;99.90
39849;DHT22;25518;47.878;15.914;2023-02-20T06:47:22;7.20;99.90
39849;DHT22;25518;47.878;15.914;2023-02-20T06:50:11;7.30;99.90
39849;DHT22;25518;47.878;15.914;2023-02-20T06:53:01;7.30;99.90
39849;DHT22;25518;47.878;15.914;2023-02-20T06:55:51;7.40;99.90
39849;DHT22;25518;47.878;15.914;2023-02-20T06:58:40;7.30;99.90
39849;DHT22;25518;47.878;15.914;2023-02-20T07:01:37;7.40;99.90
39849;DHT22;25518;47.878;15.914;2023-02-20T07:04:28;7.40;99.90
39849;DHT22;25518;47.878;15.914;2023-02-20T07:07:19;7.40;99.90
39849;DHT22;25518;47.878;15.914;2023-02-20T07:10:09;7.30;99.90
39849;DHT22;25518;47.878;15.914;2023-02-20T07:12:59;7.30;99.90
39849;DHT22;25518;47.878;15.914;2023-02-20T07:15:51;7.40;99.90
39849;DHT22;25518;47.878;15.914;2023-02-20T07:18:41;7.40;99.90
39849;DHT22;25518;47.878;15.914;2023-02-20T07:21:31;7.40;99.90
39849;DHT22;25518;47.878;15.914;2023-02-20T07:24:20;7.50;99.90
39849;DHT22;25518;47.878;15.914;2023-02-20T07:27:11;7.50;99.90
39849;DHT22;25518;47.878;15.914;2023-02-20T07:30:02;7.60;99.90
39849;DHT22;25518;47.878;15.914;2023-02-20T07:32:51;7.70;99.90
39849;DHT22;25518;47.878;15.914;2023-02-20T07:35:41;7.70;99.90
39849;DHT22;25518;47.878;15.914;2023-02-20T07:38:31;7.70;99.90
39849;DHT22;25518;47.878;15.914;2023-02-20T07:41:21;7.70;99.90
39849;DHT22;25518;47.878;15.914;2023-02-20T07:44:11;7.80;99.90
39849;DHT22;25518;47.878;15.914;2023-02-20T07:47:03;7.90;99.90
39849;DHT22;25518;47.878;15.914;2023-02-20T07:49:52;7.90;99.90
39849;DHT22;25518;47.878;15.914;2023-02-20T07:52:44;7.90;99.90
39849;DHT22;25518;47.878;15.914;2023-02-20T07:55:34;8.10;99.90
39849;DHT22;25518;47.878;15.914;2023-02-20T07:58:23;8.20;99.90
39849;DHT22;25518;47.878;15.914;2023-02-20T08:01:13;8.20;99.90
39849;DHT22;25518;47.878;15.914;2023-02-20T08:04:03;8.30;99.90
39849;DHT22;25518;47.878;15.914;2023-02-20T08:06:52;8.30;99.90
39849;DHT22;25518;47.878;15.914;2023-02-20T08:09:42;8.40;99.90
39849;DHT22;25518;47.878;15.914;2023-02-20T08:12:31;8.50;99.90
39849;DHT22;25518;47.878;15.914;2023-02-20T08:15:21;8.50;99.90
39849;DHT22;25518;47.878;15.914;2023-02-20T08:18:11;8.40;99.90
39849;DHT22;25518;47.878;15.914;2023-02-20T08:21:01;8.40;99.90
39849;DHT22;25518;47.878;15.914;2023-02-20T08:23:51;8.40;99.90
39849;DHT22;25518;47.878;15.914;2023-02-20T08:26:43;8.60;99.90
39849;DHT22;25518;47.878;15.914;2023-02-20T08:29:34;8.50;99.90
39849;DHT22;25518;47.878;15.914;2023-02-20T08:32:23;8.60;99.90
39849;DHT22;25518;47.878;15.914;2023-02-20T08:35:15;8.60;99.90
39849;DHT22;25518;47.878;15.914;2023-02-20T08:38:20;8.60;99.90
39849;DHT22;25518;47.878;15.914;2023-02-20T08:41:11;8.50;99.90
39849;DHT22;25518;47.878;15.914;2023-02-20T08:44:00;8.50;99.90
39849;DHT22;25518;47.878;15.914;2023-02-20T08:46:51;8.60;99.90
39849;DHT22;25518;47.878;15.914;2023-02-20T08:49:41;8.50;99.90
39849;DHT22;25518;47.878;15.914;2023-02-20T08:52:30;8.60;99.90
39849;DHT22;25518;47.878;15.914;2023-02-20T08:55:20;8.70;99.90
39849;DHT22;25518;47.878;15.914;2023-02-20T08:58:10;8.80;99.90
39849;DHT22;25518;47.878;15.914;2023-02-20T09:01:00;8.70;99.90
39849;DHT22;25518;47.878;15.914;2023-02-20T09:03:50;8.80;99.90
39849;DHT22;25518;47.878;15.914;2023-02-20T09:06:40;8.90;99.90
39849;DHT22;25518;47.878;15.914;2023-02-20T09:09:29;8.90;99.90
39849;DHT22;25518;47.878;15.914;2023-02-20T09:12:19;8.90;99.90
39849;DHT22;25518;47.878;15.914;2023-02-20T09:15:09;8.80;99.90
39849;DHT22;25518;47.878;15.914;2023-02-20T09:17:59;8.90;99.90
39849;DHT22;25518;47.878;15.914;2023-02-20T09:20:49;8.80;99.90
39849;DHT22;25518;47.878;15.914;2023-02-20T09:23:40;8.80;99.90
39849;DHT22;25518;47.878;15.914;2023-02-20T09:26:30;8.80;99.90
39849;DHT22;25518;47.878;15.914;2023-02-20T09:29:19;8.80;99.90
39849;DHT22;25518;47.878;15.914;2023-02-20T09:32:10;8.80;99.90
39849;DHT22;25518;47.878;15.914;2023-02-20T09:35:00;8.90;99.90
39849;DHT22;25518;47.878;15.914;2023-02-20T09:37:50;9.10;99.90
39849;DHT22;25518;47.878;15.914;2023-02-20T09:40:49;9.30;99.90
39849;DHT22;25518;47.878;15.914;2023-02-20T09:46:52;9.30;99.90
39849;DHT22;25518;47.878;15.914;2023-02-20T09:49:44;9.40;99.90
39849;DHT22;25518;47.878;15.914;2023-02-20T09:52:36;9.50;99.90
39849;DHT22;25518;47.878;15.914;2023-02-20T09:55:34;9.30;99.90
39849;DHT22;25518;47.878;15.914;2023-02-20T10:01:49;9.30;99.90
39849;DHT22;25518;47.878;15.914;2023-02-20T10:04:46;9.30;99.90
39849;DHT22;25518;47.878;15.914;2023-02-20T10:07:38;9.40;99.90
39849;DHT22;25518;47.878;15.914;2023-02-20T10:10:33;9.50;99.90
39849;DHT22;25518;47.878;15.914;2023-02-20T10:17:12;9.60;99.90
39849;DHT22;25518;47.878;15.914;2023-02-20T10:23:56;9.70;99.90
39849;DHT22;25518;47.878;15.914;2023-02-20T10:29:28;10.00;99.90
39849;DHT22;25518;47.878;15.914;2023-02-20T10:32:35;10.20;99.90
39849;DHT22;25518;47.878;15.914;2023-02-20T10:35:35;10.60;99.90
39849;DHT22;25518;47.878;15.914;2023-02-20T10:38:30;10.70;99.90
39849;DHT22;25518;47.878;15.914;2023-02-20T10:41:30;10.70;99.90
39849;DHT22;25518;47.878;15.914;2023-02-20T10:44:26;10.50;99.90
39849;DHT22;25518;47.878;15.914;2023-02-20T12:05:17;11.40;99.90
39849;DHT22;25518;47.878;15.914;2023-02-20T12:08:42;11.60;99.90
39849;DHT22;25518;47.878;15.914;2023-02-20T12:11:53;11.60;99.90
39849;DHT22;25518;47.878;15.914;2023-02-20T12:14:48;11.60;99.90
39849;DHT22;25518;47.878;15.914;2023-02-20T12:27:11;15.00;99.90
39849;DHT22;25518;47.878;15.914;2023-02-20T13:36:53;10.20;99.60
39849;DHT22;25518;47.878;15.914;2023-02-20T13:39:43;12.30;98.60
39849;DHT22;25518;47.878;15.914;2023-02-20T13:42:33;13.00;96.80
39849;DHT22;25518;47.878;15.914;2023-02-20T13:45:36;13.60;97.80
39849;DHT22;25518;47.878;15.914;2023-02-20T13:54:17;14.10;95.20
39849;DHT22;25518;47.878;15.914;2023-02-20T13:57:15;14.50;94.60
39849;DHT22;25518;47.878;15.914;2023-02-20T14:03:12;14.50;93.70
39849;DHT22;25518;47.878;15.914;2023-02-20T14:09:10;11.00;93.60
39849;DHT22;25518;47.878;15.914;2023-02-20T14:15:55;12.90;94.40
39849;DHT22;25518;47.878;15.914;2023-02-20T14:18:45;12.90;94.50
39849;DHT22;25518;47.878;15.914;2023-02-20T14:24:43;12.50;95.50
39849;DHT22;25518;47.878;15.914;2023-02-20T14:27:33;14.80;95.50
39849;DHT22;25518;47.878;15.914;2023-02-20T14:30:23;12.30;94.70
39849;DHT22;25518;47.878;15.914;2023-02-20T14:33:27;13.40;94.40
39849;DHT22;25518;47.878;15.914;2023-02-20T14:39:41;15.10;92.80
39849;DHT22;25518;47.878;15.914;2023-02-20T14:42:32;15.50;90.60
39849;DHT22;25518;47.878;15.914;2023-02-20T14:45:25;15.70;89.80
39849;DHT22;25518;47.878;15.914;2023-02-20T14:48:26;15.90;89.30
39849;DHT22;25518;47.878;15.914;2023-02-20T14:51:22;16.00;88.20
39849;DHT22;25518;47.878;15.914;2023-02-20T14:54:22;15.70;88.30
39849;DHT22;25518;47.878;15.914;2023-02-20T14:57:14;16.60;83.30
39849;DHT22;25518;47.878;15.914;2023-02-20T15:00:24;14.50;84.40
39849;DHT22;25518;47.878;15.914;2023-02-20T15:03:21;13.80;86.00
39849;DHT22;25518;47.878;15.914;2023-02-20T15:06:14;15.40;89.60
39849;DHT22;25518;47.878;15.914;2023-02-20T15:09:05;14.90;89.10
39849;DHT22;25518;47.878;15.914;2023-02-20T15:11:56;14.20;90.00
39849;DHT22;25518;47.878;15.914;2023-02-20T15:14:54;13.80;90.70
39849;DHT22;25518;47.878;15.914;2023-02-20T15:17:45;13.70;90.10
39849;DHT22;25518;47.878;15.914;2023-02-20T15:20:38;13.10;91.90
39849;DHT22;25518;47.878;15.914;2023-02-20T15:23:30;11.70;91.60
39849;DHT22;25518;47.878;15.914;2023-02-20T15:26:36;12.70;92.10
39849;DHT22;25518;47.878;15.914;2023-02-20T15:29:27;10.20;93.30
39849;DHT22;25518;47.878;15.914;2023-02-20T15:32:21;12.20;94.60
39849;DHT22;25518;47.878;15.914;2023-02-20T15:35:15;12.10;95.50
39849;DHT22;25518;47.878;15.914;2023-02-20T15:38:07;12.00;93.30
39849;DHT22;25518;47.878;15.914;2023-02-20T15:44:14;11.90;92.20
39849;DHT22;25518;47.878;15.914;2023-02-20T15:59:32;11.50;93.50
39849;DHT22;25518;47.878;15.914;2023-02-20T16:02:22;11.60;93.30
39849;DHT22;25518;47.878;15.914;2023-02-20T16:05:13;11.50;93.40
39849;DHT22;25518;47.878;15.914;2023-02-20T16:08:02;11.40;93.70
39849;DHT22;25518;47.878;15.914;2023-02-20T16:10:53;11.50;92.50
39849;DHT22;25518;47.878;15.914;2023-02-20T16:13:45;11.30;93.30
39849;DHT22;25518;47.878;15.914;2023-02-20T16:16:41;11.30;92.90
39849;DHT22;25518;47.878;15.914;2023-02-20T16:19:31;11.20;93.20
39849;DHT22;25518;47.878;15.914;2023-02-20T16:22:21;11.10;94.70
39849;DHT22;25518;47.878;15.914;2023-02-20T16:25:13;10.90;93.80
39849;DHT22;25518;47.878;15.914;2023-02-20T16:28:04;10.80;94.80
39849;DHT22;25518;47.878;15.914;2023-02-20T16:30:54;10.90;94.80
39849;DHT22;25518;47.878;15.914;2023-02-20T16:33:43;10.70;94.60
39849;DHT22;25518;47.878;15.914;2023-02-20T16:36:33;10.60;95.80
39849;DHT22;25518;47.878;15.914;2023-02-20T16:39:23;10.90;93.30
39849;DHT22;25518;47.878;15.914;2023-02-20T16:42:31;10.80;94.00
39849;DHT22;25518;47.878;15.914;2023-02-20T16:45:22;11.00;93.40
39849;DHT22;25518;47.878;15.914;2023-02-20T16:48:14;10.90;94.20
39849;DHT22;25518;47.878;15.914;2023-02-20T16:51:08;11.30;93.60
39849;DHT22;25518;47.878;15.914;2023-02-20T16:53:59;11.20;93.80
39849;DHT22;25518;47.878;15.914;2023-02-20T16:56:49;10.80;95.80
39849;DHT22;25518;47.878;15.914;2023-02-20T16:59:39;11.10;93.70
39849;DHT22;25518;47.878;15.914;2023-02-20T17:02:30;11.00;93.80
39849;DHT22;25518;47.878;15.914;2023-02-20T17:05:23;11.00;94.80
39849;DHT22;25518;47.878;15.914;2023-02-20T17:08:13;11.00;95.20
39849;DHT22;25518;47.878;15.914;2023-02-20T17:11:03;11.10;93.50
39849;DHT22;25518;47.878;15.914;2023-02-20T17:13:52;11.10;93.30
39849;DHT22;25518;47.878;15.914;2023-02-20T17:16:47;11.10;93.90
39849;DHT22;25518;47.878;15.914;2023-02-20T17:19:39;11.00;95.10
39849;DHT22;25518;47.878;15.914;2023-02-20T17:22:29;11.20;94.40
39849;DHT22;25518;47.878;15.914;2023-02-20T17:25:21;11.30;93.70
39849;DHT22;25518;47.878;15.914;2023-02-20T17:28:11;11.40;94.80
39849;DHT22;25518;47.878;15.914;2023-02-20T17:31:03;11.30;95.00
39849;DHT22;25518;47.878;15.914;2023-02-20T17:33:53;11.30;93.80
39849;DHT22;25518;47.878;15.914;2023-02-20T17:36:43;11.80;93.00
39849;DHT22;25518;47.878;15.914;2023-02-20T17:39:37;11.60;93.60
39849;DHT22;25518;47.878;15.914;2023-02-20T17:42:28;11.60;93.50
39849;DHT22;25518;47.878;15.914;2023-02-20T17:45:19;11.60;93.80
39849;DHT22;25518;47.878;15.914;2023-02-20T17:48:08;11.80;94.40
39849;DHT22;25518;47.878;15.914;2023-02-20T17:50:58;11.80;93.40
39849;DHT22;25518;47.878;15.914;2023-02-20T17:53:47;11.80;93.40
39849;DHT22;25518;47.878;15.914;2023-02-20T17:56:40;11.90;93.30
39849;DHT22;25518;47.878;15.914;2023-02-20T17:59:30;11.80;93.10
39849;DHT22;25518;47.878;15.914;2023-02-20T18:02:19;11.80;93.80
39849;DHT22;25518;47.878;15.914;2023-02-20T18:05:09;11.70;92.80
39849;DHT22;25518;47.878;15.914;2023-02-20T18:07:59;11.80;93.10
39849;DHT22;25518;47.878;15.914;2023-02-20T18:10:48;11.50;94.40
39849;DHT22;25518;47.878;15.914;2023-02-20T18:13:38;11.70;93.50
39849;DHT22;25518;47.878;15.914;2023-02-20T18:16:28;11.40;94.50
39849;DHT22;25518;47.878;15.914;2023-02-20T18:19:18;11.20;95.10
39849;DHT22;25518;47.878;15.914;2023-02-20T18:22:08;11.30;93.50
39849;DHT22;25518;47.878;15.914;2023-02-20T18:24:58;11.40;93.90
39849;DHT22;25518;47.878;15.914;2023-02-20T18:27:47;11.20;95.30
39849;DHT22;25518;47.878;15.914;2023-02-20T18:30:37;11.50;93.20
39849;DHT22;25518;47.878;15.914;2023-02-20T18:33:27;11.50;94.20
39849;DHT22;25518;47.878;15.914;2023-02-20T18:36:17;11.40;93.90
39849;DHT22;25518;47.878;15.914;2023-02-20T18:39:07;11.40;94.10
39849;DHT22;25518;47.878;15.914;2023-02-20T18:41:58;11.40;94.10
39849;DHT22;25518;47.878;15.914;2023-02-20T18:44:48;11.40;92.90
39849;DHT22;25518;47.878;15.914;2023-02-20T18:47:37;11.80;93.10
39849;DHT22;25518;47.878;15.914;2023-02-20T18:50:27;11.50;94.00
39849;DHT22;25518;47.878;15.914;2023-02-20T18:53:16;11.30;94.40
39849;DHT22;25518;47.878;15.914;2023-02-20T18:56:09;11.30;93.60
39849;DHT22;25518;47.878;15.914;2023-02-20T18:58:59;11.50;93.10
39849;DHT22;25518;47.878;15.914;2023-02-20T19:01:50;11.40;94.20
39849;DHT22;25518;47.878;15.914;2023-02-20T19:04:40;11.30;93.80
39849;DHT22;25518;47.878;15.914;2023-02-20T19:07:29;11.20;94.20
39849;DHT22;25518;47.878;15.914;2023-02-20T19:10:22;11.50;93.70
39849;DHT22;25518;47.878;15.914;2023-02-20T19:13:12;11.50;93.90
39849;DHT22;25518;47.878;15.914;2023-02-20T19:16:04;11.50;93.40
39849;DHT22;25518;47.878;15.914;2023-02-20T19:18:54;11.50;93.70
39849;DHT22;25518;47.878;15.914;2023-02-20T19:21:44;11.50;93.80
39849;DHT22;25518;47.878;15.914;2023-02-20T19:24:38;11.50;93.70
39849;DHT22;25518;47.878;15.914;2023-02-20T19:27:27;11.70;92.80
39849;DHT22;25518;47.878;15.914;2023-02-20T19:30:18;11.70;92.90
39849;DHT22;25518;47.878;15.914;2023-02-20T19:33:09;11.80;92.60
39849;DHT22;25518;47.878;15.914;2023-02-20T19:35:59;11.70;93.10
39849;DHT22;25518;47.878;15.914;2023-02-20T19:38:49;11.80;92.60
39849;DHT22;25518;47.878;15.914;2023-02-20T19:41:39;11.70;93.10
39849;DHT22;25518;47.878;15.914;2023-02-20T19:44:29;11.60;93.20
39849;DHT22;25518;47.878;15.914;2023-02-20T19:47:18;11.70;92.50
39849;DHT22;25518;47.878;15.914;2023-02-20T19:50:09;11.70;92.50
39849;DHT22;25518;47.878;15.914;2023-02-20T19:52:59;11.70;92.40
39849;DHT22;25518;47.878;15.914;2023-02-20T19:55:48;11.50;93.00
39849;DHT22;25518;47.878;15.914;2023-02-20T19:58:42;11.50;92.70
39849;DHT22;25518;47.878;15.914;2023-02-20T20:01:32;11.40;93.00
39849;DHT22;25518;47.878;15.914;2023-02-20T20:04:24;11.30;93.10
39849;DHT22;25518;47.878;15.914;2023-02-20T20:07:14;11.30;93.00
39849;DHT22;25518;47.878;15.914;2023-02-20T20:10:04;11.40;92.70
39849;DHT22;25518;47.878;15.914;2023-02-20T20:12:56;11.40;93.00
39849;DHT22;25518;47.878;15.914;2023-02-20T20:15:46;11.40;93.30
39849;DHT22;25518;47.878;15.914;2023-02-20T20:18:36;11.50;93.30
39849;DHT22;25518;47.878;15.914;2023-02-20T20:21:26;11.30;93.80
39849;DHT22;25518;47.878;15.914;2023-02-20T20:24:15;11.10;94.20
39849;DHT22;25518;47.878;15.914;2023-02-20T20:27:05;11.30;94.10
39849;DHT22;25518;47.878;15.914;2023-02-20T20:29:55;11.30;94.40
39849;DHT22;25518;47.878;15.914;2023-02-20T20:32:46;11.10;94.80
39849;DHT22;25518;47.878;15.914;2023-02-20T20:35:38;11.40;94.40
39849;DHT22;25518;47.878;15.914;2023-02-20T20:38:27;11.20;94.60
39849;DHT22;25518;47.878;15.914;2023-02-20T20:41:17;11.30;94.50
39849;DHT22;25518;47.878;15.914;2023-02-20T20:44:06;11.20;95.00
39849;DHT22;25518;47.878;15.914;2023-02-20T20:46:57;11.30;94.30
39849;DHT22;25518;47.878;15.914;2023-02-20T20:49:46;11.60;94.30
39849;DHT22;25518;47.878;15.914;2023-02-20T20:52:36;11.40;95.20
39849;DHT22;25518;47.878;15.914;2023-02-20T20:55:27;11.50;94.50
